sensor_id;sensor_type;location;lat;lon;timestamp;P1;durP1;ratioP1;P2;durP2;ratioP2
75007;SDS011;63554;48.940;12.050;2023-02-28T00:00:14;1.67;;;1.67;;
75007;SDS011;63554;48.940;12.050;2023-02-28T00:04:17;1.17;;;1.00;;
75007;SDS011;63554;48.940;12.050;2023-02-28T00:08:21;1.00;;;1.00;;
75007;SDS011;63554;48.940;12.050;2023-02-28T00:12:24;0.95;;;0.95;;
75007;SDS011;63554;48.940;12.050;2023-02-28T00:16:27;0.73;;;0.73;;
75007;SDS011;63554;48.940;12.050;2023-02-28T00:20:30;1.02;;;1.02;;
75007;SDS011;63554;48.940;12.050;2023-02-28T00:24:34;1.35;;;1.35;;
75007;SDS011;63554;48.940;12.050;2023-02-28T00:28:36;1.02;;;0.93;;
75007;SDS011;63554;48.940;12.050;2023-02-28T00:32:39;1.20;;;1.17;;
75007;SDS011;63554;48.940;12.050;2023-02-28T00:36:42;0.77;;;0.77;;
75007;SDS011;63554;48.940;12.050;2023-02-28T00:40:48;1.15;;;1.13;;
75007;SDS011;63554;48.940;12.050;2023-02-28T00:44:51;0.75;;;0.75;;
75007;SDS011;63554;48.940;12.050;2023-02-28T00:48:54;0.75;;;0.75;;
75007;SDS011;63554;48.940;12.050;2023-02-28T00:52:56;1.95;;;1.85;;
75007;SDS011;63554;48.940;12.050;2023-02-28T00:57:00;1.30;;;1.30;;
75007;SDS011;63554;48.940;12.050;2023-02-28T01:01:03;1.25;;;1.25;;
75007;SDS011;63554;48.940;12.050;2023-02-28T01:05:07;2.00;;;1.60;;
75007;SDS011;63554;48.940;12.050;2023-02-28T01:09:10;1.17;;;1.17;;
75007;SDS011;63554;48.940;12.050;2023-02-28T01:13:14;1.13;;;1.13;;
75007;SDS011;63554;48.940;12.050;2023-02-28T01:17:18;1.30;;;1.30;;
75007;SDS011;63554;48.940;12.050;2023-02-28T01:21:21;1.45;;;1.38;;
75007;SDS011;63554;48.940;12.050;2023-02-28T01:25:24;0.93;;;0.93;;
75007;SDS011;63554;48.940;12.050;2023-02-28T01:29:28;0.88;;;0.88;;
75007;SDS011;63554;48.940;12.050;2023-02-28T01:33:30;1.83;;;1.58;;
75007;SDS011;63554;48.940;12.050;2023-02-28T01:37:33;1.00;;;1.00;;
75007;SDS011;63554;48.940;12.050;2023-02-28T01:41:36;0.95;;;0.95;;
75007;SDS011;63554;48.940;12.050;2023-02-28T01:45:40;1.75;;;1.40;;
75007;SDS011;63554;48.940;12.050;2023-02-28T01:49:43;1.67;;;1.50;;
75007;SDS011;63554;48.940;12.050;2023-02-28T01:53:47;1.65;;;1.55;;
75007;SDS011;63554;48.940;12.050;2023-02-28T01:57:54;1.10;;;1.10;;
75007;SDS011;63554;48.940;12.050;2023-02-28T02:01:59;1.77;;;1.67;;
75007;SDS011;63554;48.940;12.050;2023-02-28T02:06:03;1.45;;;1.45;;
75007;SDS011;63554;48.940;12.050;2023-02-28T02:10:10;1.50;;;1.23;;
75007;SDS011;63554;48.940;12.050;2023-02-28T02:14:24;1.42;;;1.35;;
75007;SDS011;63554;48.940;12.050;2023-02-28T02:18:39;0.88;;;0.88;;
75007;SDS011;63554;48.940;12.050;2023-02-28T02:23:02;3.75;;;1.45;;
75007;SDS011;63554;48.940;12.050;2023-02-28T02:27:18;1.85;;;1.75;;
75007;SDS011;63554;48.940;12.050;2023-02-28T02:31:29;1.55;;;1.45;;
75007;SDS011;63554;48.940;12.050;2023-02-28T02:35:51;3.15;;;1.63;;
75007;SDS011;63554;48.940;12.050;2023-02-28T02:39:59;1.52;;;1.42;;
75007;SDS011;63554;48.940;12.050;2023-02-28T02:44:07;1.50;;;1.40;;
75007;SDS011;63554;48.940;12.050;2023-02-28T02:48:18;1.05;;;1.05;;
75007;SDS011;63554;48.940;12.050;2023-02-28T02:52:31;4.82;;;1.20;;
75007;SDS011;63554;48.940;12.050;2023-02-28T02:56:38;1.73;;;1.65;;
75007;SDS011;63554;48.940;12.050;2023-02-28T03:00:45;1.48;;;1.35;;
75007;SDS011;63554;48.940;12.050;2023-02-28T03:04:50;2.40;;;2.33;;
75007;SDS011;63554;48.940;12.050;2023-02-28T03:08:57;4.90;;;1.52;;
75007;SDS011;63554;48.940;12.050;2023-02-28T03:13:10;1.48;;;1.48;;
75007;SDS011;63554;48.940;12.050;2023-02-28T03:21:59;1.30;;;1.30;;
75007;SDS011;63554;48.940;12.050;2023-02-28T03:26:13;2.55;;;0.88;;
75007;SDS011;63554;48.940;12.050;2023-02-28T03:30:23;0.90;;;0.90;;
75007;SDS011;63554;48.940;12.050;2023-02-28T03:34:31;1.33;;;1.33;;
75007;SDS011;63554;48.940;12.050;2023-02-28T03:38:37;1.13;;;1.13;;
75007;SDS011;63554;48.940;12.050;2023-02-28T03:42:46;1.33;;;1.33;;
75007;SDS011;63554;48.940;12.050;2023-02-28T03:46:53;0.95;;;0.95;;
75007;SDS011;63554;48.940;12.050;2023-02-28T03:51:03;3.25;;;1.73;;
75007;SDS011;63554;48.940;12.050;2023-02-28T03:55:11;1.77;;;1.67;;
75007;SDS011;63554;48.940;12.050;2023-02-28T03:59:20;3.72;;;2.83;;
75007;SDS011;63554;48.940;12.050;2023-02-28T04:03:28;2.00;;;1.90;;
75007;SDS011;63554;48.940;12.050;2023-02-28T04:07:31;2.42;;;1.05;;
75007;SDS011;63554;48.940;12.050;2023-02-28T04:11:34;2.33;;;2.13;;
75007;SDS011;63554;48.940;12.050;2023-02-28T04:15:40;2.28;;;2.08;;
75007;SDS011;63554;48.940;12.050;2023-02-28T04:19:43;1.10;;;1.10;;
75007;SDS011;63554;48.940;12.050;2023-02-28T04:23:46;1.90;;;1.80;;
75007;SDS011;63554;48.940;12.050;2023-02-28T04:27:48;1.05;;;1.05;;
75007;SDS011;63554;48.940;12.050;2023-02-28T04:31:52;0.93;;;0.93;;
75007;SDS011;63554;48.940;12.050;2023-02-28T04:35:59;2.50;;;2.40;;
75007;SDS011;63554;48.940;12.050;2023-02-28T04:40:04;1.77;;;1.67;;
75007;SDS011;63554;48.940;12.050;2023-02-28T04:44:07;1.13;;;1.13;;
75007;SDS011;63554;48.940;12.050;2023-02-28T04:48:11;3.10;;;2.13;;
75007;SDS011;63554;48.940;12.050;2023-02-28T04:52:14;1.45;;;1.45;;
75007;SDS011;63554;48.940;12.050;2023-02-28T04:56:16;1.25;;;1.25;;
75007;SDS011;63554;48.940;12.050;2023-02-28T05:00:20;1.30;;;1.30;;
75007;SDS011;63554;48.940;12.050;2023-02-28T05:04:24;4.00;;;1.15;;
75007;SDS011;63554;48.940;12.050;2023-02-28T05:08:27;2.38;;;2.28;;
75007;SDS011;63554;48.940;12.050;2023-02-28T05:12:31;2.05;;;1.95;;
75007;SDS011;63554;48.940;12.050;2023-02-28T05:16:34;0.90;;;0.90;;
75007;SDS011;63554;48.940;12.050;2023-02-28T05:20:38;3.60;;;1.35;;
75007;SDS011;63554;48.940;12.050;2023-02-28T05:24:40;1.83;;;1.73;;
75007;SDS011;63554;48.940;12.050;2023-02-28T05:28:43;3.88;;;1.42;;
75007;SDS011;63554;48.940;12.050;2023-02-28T05:32:49;1.02;;;1.00;;
75007;SDS011;63554;48.940;12.050;2023-02-28T05:36:53;1.30;;;1.20;;
75007;SDS011;63554;48.940;12.050;2023-02-28T05:40:56;4.05;;;2.15;;
75007;SDS011;63554;48.940;12.050;2023-02-28T05:44:59;3.53;;;2.28;;
75007;SDS011;63554;48.940;12.050;2023-02-28T05:49:02;2.33;;;2.00;;
75007;SDS011;63554;48.940;12.050;2023-02-28T05:53:06;3.83;;;3.58;;
75007;SDS011;63554;48.940;12.050;2023-02-28T05:57:09;1.20;;;1.20;;
75007;SDS011;63554;48.940;12.050;2023-02-28T06:01:26;1.40;;;1.40;;
75007;SDS011;63554;48.940;12.050;2023-02-28T06:05:35;2.10;;;1.27;;
75007;SDS011;63554;48.940;12.050;2023-02-28T06:09:41;1.88;;;1.80;;
75007;SDS011;63554;48.940;12.050;2023-02-28T06:13:43;1.58;;;1.48;;
75007;SDS011;63554;48.940;12.050;2023-02-28T06:17:47;2.28;;;2.17;;
75007;SDS011;63554;48.940;12.050;2023-02-28T06:21:49;1.80;;;1.70;;
75007;SDS011;63554;48.940;12.050;2023-02-28T06:25:55;1.75;;;1.65;;
75007;SDS011;63554;48.940;12.050;2023-02-28T06:30:00;4.32;;;1.92;;
75007;SDS011;63554;48.940;12.050;2023-02-28T06:34:03;2.78;;;2.03;;
75007;SDS011;63554;48.940;12.050;2023-02-28T06:38:05;2.90;;;2.08;;
75007;SDS011;63554;48.940;12.050;2023-02-28T06:42:09;3.47;;;1.48;;
75007;SDS011;63554;48.940;12.050;2023-02-28T06:46:13;2.08;;;1.98;;
75007;SDS011;63554;48.940;12.050;2023-02-28T06:50:17;0.90;;;0.90;;
75007;SDS011;63554;48.940;12.050;2023-02-28T06:54:22;1.92;;;1.80;;
75007;SDS011;63554;48.940;12.050;2023-02-28T06:58:26;2.00;;;1.65;;
75007;SDS011;63554;48.940;12.050;2023-02-28T07:02:28;1.30;;;1.30;;
75007;SDS011;63554;48.940;12.050;2023-02-28T07:06:32;2.55;;;2.45;;
75007;SDS011;63554;48.940;12.050;2023-02-28T07:10:36;1.08;;;1.08;;
75007;SDS011;63554;48.940;12.050;2023-02-28T07:14:40;1.85;;;1.70;;
75007;SDS011;63554;48.940;12.050;2023-02-28T07:18:43;1.33;;;1.27;;
75007;SDS011;63554;48.940;12.050;2023-02-28T07:22:46;1.98;;;1.67;;
75007;SDS011;63554;48.940;12.050;2023-02-28T07:26:56;2.05;;;1.88;;
75007;SDS011;63554;48.940;12.050;2023-02-28T07:31:03;3.40;;;1.52;;
75007;SDS011;63554;48.940;12.050;2023-02-28T07:35:07;1.67;;;1.50;;
75007;SDS011;63554;48.940;12.050;2023-02-28T07:39:10;2.30;;;2.15;;
75007;SDS011;63554;48.940;12.050;2023-02-28T07:43:14;1.55;;;1.45;;
75007;SDS011;63554;48.940;12.050;2023-02-28T07:47:18;1.27;;;1.27;;
75007;SDS011;63554;48.940;12.050;2023-02-28T07:51:21;1.13;;;1.02;;
75007;SDS011;63554;48.940;12.050;2023-02-28T07:55:24;0.85;;;0.85;;
75007;SDS011;63554;48.940;12.050;2023-02-28T07:59:27;1.08;;;1.08;;
75007;SDS011;63554;48.940;12.050;2023-02-28T08:03:34;1.95;;;1.83;;
75007;SDS011;63554;48.940;12.050;2023-02-28T08:07:37;2.67;;;1.48;;
75007;SDS011;63554;48.940;12.050;2023-02-28T08:11:41;1.75;;;0.80;;
75007;SDS011;63554;48.940;12.050;2023-02-28T08:15:43;1.00;;;1.00;;
75007;SDS011;63554;48.940;12.050;2023-02-28T08:19:50;1.17;;;1.17;;
75007;SDS011;63554;48.940;12.050;2023-02-28T08:23:53;0.93;;;0.93;;
75007;SDS011;63554;48.940;12.050;2023-02-28T08:27:57;0.77;;;0.77;;
75007;SDS011;63554;48.940;12.050;2023-02-28T08:32:00;1.60;;;1.50;;
75007;SDS011;63554;48.940;12.050;2023-02-28T08:36:05;0.82;;;0.82;;
75007;SDS011;63554;48.940;12.050;2023-02-28T08:40:09;1.02;;;1.02;;
75007;SDS011;63554;48.940;12.050;2023-02-28T08:44:14;1.20;;;1.17;;
75007;SDS011;63554;48.940;12.050;2023-02-28T08:48:17;1.23;;;1.23;;
75007;SDS011;63554;48.940;12.050;2023-02-28T08:52:21;0.80;;;0.80;;
75007;SDS011;63554;48.940;12.050;2023-02-28T08:56:24;1.98;;;1.83;;
75007;SDS011;63554;48.940;12.050;2023-02-28T09:00:28;1.30;;;1.20;;
75007;SDS011;63554;48.940;12.050;2023-02-28T09:04:30;1.88;;;1.15;;
75007;SDS011;63554;48.940;12.050;2023-02-28T09:08:34;1.60;;;1.17;;
75007;SDS011;63554;48.940;12.050;2023-02-28T09:12:37;3.28;;;2.03;;
75007;SDS011;63554;48.940;12.050;2023-02-28T09:16:40;1.75;;;1.65;;
75007;SDS011;63554;48.940;12.050;2023-02-28T09:20:43;0.77;;;0.70;;
75007;SDS011;63554;48.940;12.050;2023-02-28T09:24:47;3.00;;;2.53;;
75007;SDS011;63554;48.940;12.050;2023-02-28T09:28:50;2.03;;;1.73;;
75007;SDS011;63554;48.940;12.050;2023-02-28T09:32:54;6.68;;;2.47;;
75007;SDS011;63554;48.940;12.050;2023-02-28T09:36:57;1.45;;;1.35;;
75007;SDS011;63554;48.940;12.050;2023-02-28T09:41:01;1.08;;;0.98;;
75007;SDS011;63554;48.940;12.050;2023-02-28T09:45:19;1.75;;;1.08;;
75007;SDS011;63554;48.940;12.050;2023-02-28T09:49:28;1.98;;;1.40;;
75007;SDS011;63554;48.940;12.050;2023-02-28T09:53:38;2.25;;;1.27;;
75007;SDS011;63554;48.940;12.050;2023-02-28T09:57:42;1.77;;;1.50;;
75007;SDS011;63554;48.940;12.050;2023-02-28T10:01:47;0.90;;;0.57;;
75007;SDS011;63554;48.940;12.050;2023-02-28T10:05:58;3.22;;;1.27;;
75007;SDS011;63554;48.940;12.050;2023-02-28T10:14:24;1.85;;;1.25;;
75007;SDS011;63554;48.940;12.050;2023-02-28T10:18:34;2.20;;;1.83;;
75007;SDS011;63554;48.940;12.050;2023-02-28T10:22:49;2.22;;;1.80;;
75007;SDS011;63554;48.940;12.050;2023-02-28T10:26:56;3.65;;;1.33;;
75007;SDS011;63554;48.940;12.050;2023-02-28T10:31:04;1.70;;;1.20;;
75007;SDS011;63554;48.940;12.050;2023-02-28T10:35:10;1.98;;;1.38;;
75007;SDS011;63554;48.940;12.050;2023-02-28T10:39:40;2.03;;;1.17;;
75007;SDS011;63554;48.940;12.050;2023-02-28T10:43:44;1.77;;;1.67;;
75007;SDS011;63554;48.940;12.050;2023-02-28T10:47:53;3.92;;;2.08;;
75007;SDS011;63554;48.940;12.050;2023-02-28T10:51:58;4.88;;;2.15;;
75007;SDS011;63554;48.940;12.050;2023-02-28T10:56:03;2.65;;;2.13;;
75007;SDS011;63554;48.940;12.050;2023-02-28T11:00:12;4.13;;;2.10;;
75007;SDS011;63554;48.940;12.050;2023-02-28T11:04:23;3.80;;;1.77;;
75007;SDS011;63554;48.940;12.050;2023-02-28T11:08:43;2.75;;;1.70;;
75007;SDS011;63554;48.940;12.050;2023-02-28T11:12:47;4.25;;;1.73;;
75007;SDS011;63554;48.940;12.050;2023-02-28T11:16:54;4.15;;;1.60;;
75007;SDS011;63554;48.940;12.050;2023-02-28T11:21:02;3.33;;;1.67;;
75007;SDS011;63554;48.940;12.050;2023-02-28T11:25:06;5.22;;;2.00;;
75007;SDS011;63554;48.940;12.050;2023-02-28T11:29:16;4.53;;;2.55;;
75007;SDS011;63554;48.940;12.050;2023-02-28T11:33:22;4.30;;;2.35;;
75007;SDS011;63554;48.940;12.050;2023-02-28T11:37:30;3.10;;;2.55;;
75007;SDS011;63554;48.940;12.050;2023-02-28T11:41:38;3.75;;;2.08;;
75007;SDS011;63554;48.940;12.050;2023-02-28T11:46:00;2.80;;;2.30;;
75007;SDS011;63554;48.940;12.050;2023-02-28T11:50:16;4.45;;;2.67;;
75007;SDS011;63554;48.940;12.050;2023-02-28T11:54:31;2.78;;;1.80;;
75007;SDS011;63554;48.940;12.050;2023-02-28T11:58:54;3.80;;;2.50;;
75007;SDS011;63554;48.940;12.050;2023-02-28T12:03:03;2.85;;;2.17;;
75007;SDS011;63554;48.940;12.050;2023-02-28T12:07:16;2.40;;;1.88;;
75007;SDS011;63554;48.940;12.050;2023-02-28T12:11:31;2.95;;;2.40;;
75007;SDS011;63554;48.940;12.050;2023-02-28T12:15:46;2.78;;;1.88;;
75007;SDS011;63554;48.940;12.050;2023-02-28T12:20:05;2.60;;;2.28;;
75007;SDS011;63554;48.940;12.050;2023-02-28T12:24:24;4.18;;;2.22;;
75007;SDS011;63554;48.940;12.050;2023-02-28T12:28:43;2.42;;;1.70;;
75007;SDS011;63554;48.940;12.050;2023-02-28T12:32:51;4.15;;;2.38;;
75007;SDS011;63554;48.940;12.050;2023-02-28T12:36:58;7.25;;;2.40;;
75007;SDS011;63554;48.940;12.050;2023-02-28T12:41:08;2.67;;;2.10;;
75007;SDS011;63554;48.940;12.050;2023-02-28T12:45:17;4.07;;;2.63;;
75007;SDS011;63554;48.940;12.050;2023-02-28T12:49:23;9.65;;;2.53;;
75007;SDS011;63554;48.940;12.050;2023-02-28T12:53:33;3.53;;;2.85;;
75007;SDS011;63554;48.940;12.050;2023-02-28T12:57:46;4.93;;;2.63;;
75007;SDS011;63554;48.940;12.050;2023-02-28T13:02:02;5.22;;;3.20;;
75007;SDS011;63554;48.940;12.050;2023-02-28T13:06:24;4.35;;;2.55;;
75007;SDS011;63554;48.940;12.050;2023-02-28T13:10:40;5.03;;;2.50;;
75007;SDS011;63554;48.940;12.050;2023-02-28T13:14:45;3.70;;;2.55;;
75007;SDS011;63554;48.940;12.050;2023-02-28T13:18:49;4.63;;;2.90;;
75007;SDS011;63554;48.940;12.050;2023-02-28T13:22:54;3.90;;;2.70;;
75007;SDS011;63554;48.940;12.050;2023-02-28T13:36:26;5.38;;;2.65;;
75007;SDS011;63554;48.940;12.050;2023-02-28T13:40:31;3.25;;;1.98;;
75007;SDS011;63554;48.940;12.050;2023-02-28T13:49:18;3.35;;;2.05;;
75007;SDS011;63554;48.940;12.050;2023-02-28T13:58:07;6.38;;;3.15;;
75007;SDS011;63554;48.940;12.050;2023-02-28T14:06:38;6.47;;;3.05;;
75007;SDS011;63554;48.940;12.050;2023-02-28T14:10:50;4.00;;;2.30;;
75007;SDS011;63554;48.940;12.050;2023-02-28T14:15:23;3.30;;;2.05;;
75007;SDS011;63554;48.940;12.050;2023-02-28T14:19:30;7.05;;;2.47;;
75007;SDS011;63554;48.940;12.050;2023-02-28T14:23:38;4.15;;;2.97;;
75007;SDS011;63554;48.940;12.050;2023-02-28T14:27:50;5.15;;;2.65;;
75007;SDS011;63554;48.940;12.050;2023-02-28T14:32:01;4.25;;;2.67;;
75007;SDS011;63554;48.940;12.050;2023-02-28T14:36:10;3.42;;;1.77;;
75007;SDS011;63554;48.940;12.050;2023-02-28T14:40:19;2.72;;;2.38;;
75007;SDS011;63554;48.940;12.050;2023-02-28T14:44:30;3.38;;;2.72;;
75007;SDS011;63554;48.940;12.050;2023-02-28T14:48:33;4.35;;;2.67;;
75007;SDS011;63554;48.940;12.050;2023-02-28T14:52:36;7.45;;;2.53;;
75007;SDS011;63554;48.940;12.050;2023-02-28T14:56:39;3.55;;;2.42;;
75007;SDS011;63554;48.940;12.050;2023-02-28T15:00:48;2.78;;;2.20;;
75007;SDS011;63554;48.940;12.050;2023-02-28T15:04:55;5.35;;;2.80;;
75007;SDS011;63554;48.940;12.050;2023-02-28T15:09:09;4.60;;;2.35;;
75007;SDS011;63554;48.940;12.050;2023-02-28T15:13:16;2.83;;;2.28;;
75007;SDS011;63554;48.940;12.050;2023-02-28T15:17:22;4.97;;;3.22;;
75007;SDS011;63554;48.940;12.050;2023-02-28T15:21:28;3.53;;;2.00;;
75007;SDS011;63554;48.940;12.050;2023-02-28T15:25:33;4.78;;;2.80;;
75007;SDS011;63554;48.940;12.050;2023-02-28T15:29:41;5.00;;;2.67;;
75007;SDS011;63554;48.940;12.050;2023-02-28T15:33:53;4.88;;;2.25;;
75007;SDS011;63554;48.940;12.050;2023-02-28T15:37:57;4.60;;;3.30;;
75007;SDS011;63554;48.940;12.050;2023-02-28T15:42:09;4.07;;;2.58;;
75007;SDS011;63554;48.940;12.050;2023-02-28T15:46:13;4.38;;;3.08;;
75007;SDS011;63554;48.940;12.050;2023-02-28T15:50:18;3.80;;;2.83;;
75007;SDS011;63554;48.940;12.050;2023-02-28T15:54:22;4.13;;;2.22;;
75007;SDS011;63554;48.940;12.050;2023-02-28T15:58:28;5.30;;;2.33;;
75007;SDS011;63554;48.940;12.050;2023-02-28T16:02:33;4.93;;;2.22;;
75007;SDS011;63554;48.940;12.050;2023-02-28T16:06:39;3.10;;;2.63;;
75007;SDS011;63554;48.940;12.050;2023-02-28T16:10:43;4.47;;;3.08;;
75007;SDS011;63554;48.940;12.050;2023-02-28T16:14:46;3.75;;;2.22;;
75007;SDS011;63554;48.940;12.050;2023-02-28T16:18:52;4.22;;;2.90;;
75007;SDS011;63554;48.940;12.050;2023-02-28T16:22:57;2.97;;;2.47;;
75007;SDS011;63554;48.940;12.050;2023-02-28T16:27:02;6.55;;;3.15;;
75007;SDS011;63554;48.940;12.050;2023-02-28T16:31:06;5.18;;;3.30;;
75007;SDS011;63554;48.940;12.050;2023-02-28T16:35:10;6.00;;;3.13;;
75007;SDS011;63554;48.940;12.050;2023-02-28T16:39:16;10.40;;;4.43;;
75007;SDS011;63554;48.940;12.050;2023-02-28T16:43:22;6.60;;;4.60;;
75007;SDS011;63554;48.940;12.050;2023-02-28T16:47:26;7.03;;;3.53;;
75007;SDS011;63554;48.940;12.050;2023-02-28T16:51:29;3.47;;;2.92;;
75007;SDS011;63554;48.940;12.050;2023-02-28T16:55:37;3.85;;;2.83;;
75007;SDS011;63554;48.940;12.050;2023-02-28T16:59:40;6.72;;;3.40;;
75007;SDS011;63554;48.940;12.050;2023-02-28T17:03:43;6.03;;;2.28;;
75007;SDS011;63554;48.940;12.050;2023-02-28T17:07:46;3.45;;;2.72;;
75007;SDS011;63554;48.940;12.050;2023-02-28T17:11:50;2.85;;;2.45;;
75007;SDS011;63554;48.940;12.050;2023-02-28T17:15:54;2.53;;;2.33;;
75007;SDS011;63554;48.940;12.050;2023-02-28T17:19:57;4.03;;;3.13;;
75007;SDS011;63554;48.940;12.050;2023-02-28T17:23:59;5.40;;;3.10;;
75007;SDS011;63554;48.940;12.050;2023-02-28T17:28:03;6.13;;;2.83;;
75007;SDS011;63554;48.940;12.050;2023-02-28T17:32:06;3.15;;;2.85;;
75007;SDS011;63554;48.940;12.050;2023-02-28T17:36:20;5.28;;;3.60;;
75007;SDS011;63554;48.940;12.050;2023-02-28T17:40:25;3.00;;;2.80;;
75007;SDS011;63554;48.940;12.050;2023-02-28T17:44:29;10.23;;;7.40;;
75007;SDS011;63554;48.940;12.050;2023-02-28T17:48:32;3.70;;;2.95;;
75007;SDS011;63554;48.940;12.050;2023-02-28T17:52:36;1.92;;;1.65;;
75007;SDS011;63554;48.940;12.050;2023-02-28T17:56:39;6.65;;;4.03;;
75007;SDS011;63554;48.940;12.050;2023-02-28T18:00:45;8.50;;;3.05;;
75007;SDS011;63554;48.940;12.050;2023-02-28T18:04:48;3.88;;;2.42;;
75007;SDS011;63554;48.940;12.050;2023-02-28T18:08:51;10.95;;;3.08;;
75007;SDS011;63554;48.940;12.050;2023-02-28T18:12:54;3.90;;;3.60;;
75007;SDS011;63554;48.940;12.050;2023-02-28T18:16:58;4.20;;;2.78;;
75007;SDS011;63554;48.940;12.050;2023-02-28T18:21:02;7.18;;;3.35;;
75007;SDS011;63554;48.940;12.050;2023-02-28T18:25:07;2.72;;;2.10;;
75007;SDS011;63554;48.940;12.050;2023-02-28T18:29:15;2.10;;;1.95;;
75007;SDS011;63554;48.940;12.050;2023-02-28T18:33:20;3.08;;;2.20;;
75007;SDS011;63554;48.940;12.050;2023-02-28T18:37:23;1.83;;;1.48;;
75007;SDS011;63554;48.940;12.050;2023-02-28T18:41:26;3.05;;;2.55;;
75007;SDS011;63554;48.940;12.050;2023-02-28T18:45:29;6.03;;;2.53;;
75007;SDS011;63554;48.940;12.050;2023-02-28T18:49:33;3.65;;;2.67;;
75007;SDS011;63554;48.940;12.050;2023-02-28T18:53:38;3.80;;;3.28;;
75007;SDS011;63554;48.940;12.050;2023-02-28T18:57:42;5.38;;;4.22;;
75007;SDS011;63554;48.940;12.050;2023-02-28T19:01:45;6.75;;;3.55;;
75007;SDS011;63554;48.940;12.050;2023-02-28T19:05:49;4.47;;;3.17;;
75007;SDS011;63554;48.940;12.050;2023-02-28T19:09:55;6.22;;;3.65;;
75007;SDS011;63554;48.940;12.050;2023-02-28T19:13:58;8.45;;;3.95;;
75007;SDS011;63554;48.940;12.050;2023-02-28T19:18:01;5.25;;;3.58;;
75007;SDS011;63554;48.940;12.050;2023-02-28T19:22:05;2.55;;;2.35;;
75007;SDS011;63554;48.940;12.050;2023-02-28T19:26:09;4.07;;;3.70;;
75007;SDS011;63554;48.940;12.050;2023-02-28T19:30:13;3.15;;;2.85;;
75007;SDS011;63554;48.940;12.050;2023-02-28T19:34:16;2.70;;;2.10;;
75007;SDS011;63554;48.940;12.050;2023-02-28T19:38:21;3.25;;;3.00;;
75007;SDS011;63554;48.940;12.050;2023-02-28T19:42:23;1.60;;;1.50;;
75007;SDS011;63554;48.940;12.050;2023-02-28T19:46:30;3.65;;;3.35;;
75007;SDS011;63554;48.940;12.050;2023-02-28T19:50:33;3.58;;;3.05;;
75007;SDS011;63554;48.940;12.050;2023-02-28T19:54:38;4.05;;;3.45;;
75007;SDS011;63554;48.940;12.050;2023-02-28T19:58:41;3.67;;;3.15;;
75007;SDS011;63554;48.940;12.050;2023-02-28T20:02:44;3.38;;;2.75;;
75007;SDS011;63554;48.940;12.050;2023-02-28T20:06:47;6.25;;;5.13;;
75007;SDS011;63554;48.940;12.050;2023-02-28T20:10:52;3.70;;;3.35;;
75007;SDS011;63554;48.940;12.050;2023-02-28T20:14:55;7.38;;;3.42;;
75007;SDS011;63554;48.940;12.050;2023-02-28T20:19:00;2.97;;;2.50;;
75007;SDS011;63554;48.940;12.050;2023-02-28T20:23:02;3.40;;;3.17;;
75007;SDS011;63554;48.940;12.050;2023-02-28T20:27:07;4.00;;;3.67;;
75007;SDS011;63554;48.940;12.050;2023-02-28T20:31:10;3.72;;;3.10;;
75007;SDS011;63554;48.940;12.050;2023-02-28T20:35:14;5.25;;;3.08;;
75007;SDS011;63554;48.940;12.050;2023-02-28T20:39:17;3.90;;;3.58;;
75007;SDS011;63554;48.940;12.050;2023-02-28T20:43:21;5.90;;;3.03;;
75007;SDS011;63554;48.940;12.050;2023-02-28T20:47:24;3.88;;;3.60;;
75007;SDS011;63554;48.940;12.050;2023-02-28T20:51:27;5.57;;;2.97;;
75007;SDS011;63554;48.940;12.050;2023-02-28T20:55:30;2.80;;;2.63;;
75007;SDS011;63554;48.940;12.050;2023-02-28T20:59:34;4.32;;;3.92;;
75007;SDS011;63554;48.940;12.050;2023-02-28T21:03:39;2.65;;;2.45;;
75007;SDS011;63554;48.940;12.050;2023-02-28T21:07:42;4.65;;;4.25;;
75007;SDS011;63554;48.940;12.050;2023-02-28T21:11:45;8.20;;;3.47;;
75007;SDS011;63554;48.940;12.050;2023-02-28T21:15:49;3.60;;;3.05;;
75007;SDS011;63554;48.940;12.050;2023-02-28T21:19:52;6.70;;;2.63;;
75007;SDS011;63554;48.940;12.050;2023-02-28T21:23:56;3.42;;;2.92;;
75007;SDS011;63554;48.940;12.050;2023-02-28T21:27:59;3.75;;;2.92;;
75007;SDS011;63554;48.940;12.050;2023-02-28T21:32:03;4.97;;;3.05;;
75007;SDS011;63554;48.940;12.050;2023-02-28T21:36:08;4.25;;;2.95;;
75007;SDS011;63554;48.940;12.050;2023-02-28T21:40:12;6.00;;;4.13;;
75007;SDS011;63554;48.940;12.050;2023-02-28T21:44:15;3.60;;;2.15;;
75007;SDS011;63554;48.940;12.050;2023-02-28T21:48:20;3.92;;;2.50;;
75007;SDS011;63554;48.940;12.050;2023-02-28T21:52:23;3.80;;;2.17;;
75007;SDS011;63554;48.940;12.050;2023-02-28T21:56:27;3.10;;;2.78;;
75007;SDS011;63554;48.940;12.050;2023-02-28T22:00:31;2.13;;;1.77;;
75007;SDS011;63554;48.940;12.050;2023-02-28T22:04:36;3.15;;;2.85;;
75007;SDS011;63554;48.940;12.050;2023-02-28T22:08:40;2.95;;;2.55;;
75007;SDS011;63554;48.940;12.050;2023-02-28T22:12:42;5.88;;;2.72;;
75007;SDS011;63554;48.940;12.050;2023-02-28T22:16:45;2.75;;;2.55;;
75007;SDS011;63554;48.940;12.050;2023-02-28T22:20:55;2.42;;;2.30;;
75007;SDS011;63554;48.940;12.050;2023-02-28T22:24:57;3.22;;;3.03;;
75007;SDS011;63554;48.940;12.050;2023-02-28T22:29:00;2.45;;;2.10;;
75007;SDS011;63554;48.940;12.050;2023-02-28T22:33:03;4.35;;;2.92;;
75007;SDS011;63554;48.940;12.050;2023-02-28T22:37:07;3.95;;;3.25;;
75007;SDS011;63554;48.940;12.050;2023-02-28T22:41:10;12.98;;;3.10;;
75007;SDS011;63554;48.940;12.050;2023-02-28T22:45:13;4.20;;;3.08;;
75007;SDS011;63554;48.940;12.050;2023-02-28T22:49:16;2.88;;;2.38;;
75007;SDS011;63554;48.940;12.050;2023-02-28T22:53:20;4.95;;;3.47;;
75007;SDS011;63554;48.940;12.050;2023-02-28T22:57:22;3.22;;;2.95;;
75007;SDS011;63554;48.940;12.050;2023-02-28T23:01:26;5.18;;;2.83;;
75007;SDS011;63554;48.940;12.050;2023-02-28T23:05:30;2.85;;;2.65;;
75007;SDS011;63554;48.940;12.050;2023-02-28T23:09:34;3.15;;;2.85;;
75007;SDS011;63554;48.940;12.050;2023-02-28T23:13:36;2.08;;;1.92;;
75007;SDS011;63554;48.940;12.050;2023-02-28T23:17:39;6.05;;;2.70;;
75007;SDS011;63554;48.940;12.050;2023-02-28T23:21:42;2.60;;;2.47;;
75007;SDS011;63554;48.940;12.050;2023-02-28T23:25:47;9.10;;;3.60;;
75007;SDS011;63554;48.940;12.050;2023-02-28T23:29:50;4.97;;;3.35;;
75007;SDS011;63554;48.940;12.050;2023-02-28T23:33:52;5.47;;;3.13;;
75007;SDS011;63554;48.940;12.050;2023-02-28T23:37:56;2.60;;;2.38;;
75007;SDS011;63554;48.940;12.050;2023-02-28T23:42:00;5.47;;;2.45;;
75007;SDS011;63554;48.940;12.050;2023-02-28T23:46:03;4.28;;;3.45;;
75007;SDS011;63554;48.940;12.050;2023-02-28T23:50:06;2.72;;;2.53;;
75007;SDS011;63554;48.940;12.050;2023-02-28T23:54:10;2.15;;;2.00;;
75007;SDS011;63554;48.940;12.050;2023-02-28T23:58:14;4.38;;;2.92;;
